createdAt,value
2023-10-18T00:03:28.395Z,-0.47
2023-10-18T00:08:30.383Z,-0.62
2023-10-18T00:13:33.815Z,-0.72
2023-10-18T00:18:36.754Z,-0.53
2023-10-18T00:23:38.609Z,-0.34
2023-10-18T00:28:42.365Z,-0.56
2023-10-18T00:33:44.900Z,-0.60
2023-10-18T00:38:47.588Z,-0.61
2023-10-18T00:43:51.280Z,-0.67
2023-10-18T00:48:54.055Z,-0.53
2023-10-18T00:53:56.239Z,-0.35
2023-10-18T00:58:59.802Z,-0.70
2023-10-18T01:04:01.997Z,-0.61
2023-10-18T01:09:04.428Z,-0.80
2023-10-18T01:14:08.238Z,-0.94
2023-10-18T01:19:10.499Z,-0.87
2023-10-18T01:24:12.988Z,-0.91
2023-10-18T01:29:16.470Z,-1.06
2023-10-18T01:34:19.016Z,-1.23
2023-10-18T01:39:21.322Z,-1.11
2023-10-18T01:44:25.168Z,-0.94
2023-10-18T01:49:27.458Z,-1.00
2023-10-18T01:54:29.647Z,-1.16
2023-10-18T01:59:33.232Z,-1.12
2023-10-18T02:04:49.499Z,-1.07
2023-10-18T02:09:53.614Z,-1.09
2023-10-18T02:14:57.144Z,-1.06
2023-10-18T02:19:58.950Z,-1.24
2023-10-18T02:25:00.784Z,-0.96
2023-10-18T02:30:04.861Z,-1.12
2023-10-18T02:35:07.589Z,-1.15
2023-10-18T02:40:10.218Z,-1.19
2023-10-18T02:45:14.850Z,-1.31
2023-10-18T02:50:17.248Z,-1.43
2023-10-18T02:55:19.521Z,-1.38
2023-10-18T03:00:22.816Z,-1.44
2023-10-18T03:05:24.958Z,-1.16
2023-10-18T03:10:26.764Z,-1.32
2023-10-18T03:15:30.516Z,-1.48
2023-10-18T03:20:32.285Z,-1.54
2023-10-18T03:25:34.525Z,-1.59
2023-10-18T03:30:37.865Z,-1.69
2023-10-18T03:35:40.380Z,-1.64
2023-10-18T03:40:42.874Z,-1.77
2023-10-18T03:45:46.491Z,-1.77
2023-10-18T03:50:50.322Z,-1.82
2023-10-18T03:55:52.803Z,-1.97
2023-10-18T04:00:56.388Z,-1.93
2023-10-18T04:06:02.244Z,-2.08
2023-10-18T04:11:04.369Z,-1.86
2023-10-18T04:16:12.323Z,-1.91
2023-10-18T04:21:14.605Z,-2.05
2023-10-18T04:26:17.059Z,-1.89
2023-10-18T04:31:20.354Z,-2.00
2023-10-18T04:36:23.171Z,-2.03
2023-10-18T04:41:26.215Z,-2.01
2023-10-18T04:46:31.686Z,-1.76
2023-10-18T04:51:34.064Z,-1.90
2023-10-18T04:56:36.440Z,-1.90
2023-10-18T05:01:40.052Z,-2.18
2023-10-18T05:06:41.928Z,-2.11
2023-10-18T05:11:43.714Z,-1.99
2023-10-18T05:16:47.203Z,-1.99
2023-10-18T05:21:49.409Z,-1.88
2023-10-18T05:26:51.436Z,-1.79
2023-10-18T05:31:54.951Z,-1.62
2023-10-18T05:36:57.799Z,-1.68
2023-10-18T05:41:59.917Z,-1.42
2023-10-18T05:47:03.733Z,-1.94
2023-10-18T05:52:05.687Z,-1.88
2023-10-18T05:57:07.523Z,-1.68
2023-10-18T06:02:11.744Z,-1.51
2023-10-18T06:07:14.223Z,-1.31
2023-10-18T06:12:16.792Z,-1.37
2023-10-18T06:17:20.462Z,-1.25
2023-10-18T06:22:22.760Z,-1.03
2023-10-18T06:27:25.311Z,-1.00
2023-10-18T06:32:28.885Z,-0.89
2023-10-18T06:37:31.246Z,-0.47
2023-10-18T06:42:33.299Z,-0.19
2023-10-18T06:47:37.305Z,0.02
2023-10-18T06:52:39.170Z,0.23
2023-10-18T06:57:41.056Z,0.32
2023-10-18T07:02:44.689Z,0.47
2023-10-18T07:07:46.861Z,0.45
2023-10-18T07:12:49.466Z,0.62
2023-10-18T07:17:54.136Z,0.85
2023-10-18T07:22:57.700Z,1.16
2023-10-18T07:28:02.001Z,1.60
2023-10-18T07:33:06.938Z,1.86
2023-10-18T07:38:09.336Z,2.37
2023-10-18T07:43:11.529Z,2.55
2023-10-18T07:48:15.216Z,3.04
2023-10-18T07:53:18.159Z,3.38
2023-10-18T07:58:20.503Z,3.46
2023-10-18T08:03:24.148Z,3.73
2023-10-18T08:08:26.956Z,4.19
2023-10-18T08:13:29.174Z,4.50
2023-10-18T08:18:32.829Z,4.84
2023-10-18T08:23:34.947Z,5.15
2023-10-18T08:28:40.869Z,5.43
2023-10-18T08:33:45.211Z,5.98
2023-10-18T08:38:47.602Z,6.11
2023-10-18T08:44:04.480Z,6.17
2023-10-18T08:49:09.537Z,6.34
2023-10-18T08:54:15.269Z,6.69
2023-10-18T08:59:19.186Z,6.94
2023-10-18T09:04:22.691Z,7.24
2023-10-18T09:09:25.408Z,7.66
2023-10-18T09:14:27.193Z,7.88
2023-10-18T09:19:31.872Z,7.97
2023-10-18T09:24:34.065Z,8.45
2023-10-18T09:29:36.176Z,8.89
2023-10-18T09:34:40.381Z,9.07
2023-10-18T09:39:43.635Z,9.03
2023-10-18T09:44:45.966Z,9.51
2023-10-18T09:49:51.371Z,9.68
2023-10-18T09:55:01.898Z,11.01
2023-10-18T10:00:04.613Z,14.28
2023-10-18T10:05:08.980Z,15.31
2023-10-18T10:10:11.471Z,15.32
2023-10-18T10:15:14.126Z,14.92
2023-10-18T10:20:18.708Z,15.22
2023-10-18T10:25:24.821Z,14.93
2023-10-18T10:30:36.341Z,16.56
2023-10-18T10:35:44.549Z,16.26
2023-10-18T10:40:48.937Z,16.14
2023-10-18T10:45:51.066Z,15.93
2023-10-18T10:50:59.815Z,15.97
2023-10-18T10:56:13.967Z,16.29
2023-10-18T11:01:16.055Z,15.80
2023-10-18T11:06:23.968Z,16.02
2023-10-18T11:11:26.175Z,15.41
2023-10-18T11:16:28.534Z,14.12
2023-10-18T11:21:32.125Z,14.67
2023-10-18T11:26:34.252Z,14.62
2023-10-18T11:31:37.239Z,13.90
2023-10-18T11:36:42.552Z,13.74
2023-10-18T11:41:45.712Z,13.63
2023-10-18T11:46:49.013Z,13.54
2023-10-18T11:51:53.157Z,13.58
2023-10-18T11:56:55.395Z,13.51
2023-10-18T12:01:58.103Z,13.31
2023-10-18T12:07:01.776Z,13.54
2023-10-18T12:12:04.624Z,13.24
2023-10-18T12:17:06.486Z,13.02
2023-10-18T12:22:10.270Z,13.27
2023-10-18T12:27:12.431Z,13.15
2023-10-18T12:32:14.424Z,13.31
2023-10-18T12:37:18.674Z,13.17
2023-10-18T12:42:22.234Z,13.70
2023-10-18T12:47:24.616Z,14.12
2023-10-18T12:52:27.932Z,14.03
2023-10-18T12:57:30.748Z,13.89
2023-10-18T13:02:33.139Z,13.89
2023-10-18T13:07:36.437Z,13.94
2023-10-18T13:12:38.743Z,14.27
2023-10-18T13:17:40.974Z,13.92
2023-10-18T13:22:45.104Z,13.62
2023-10-18T13:27:47.504Z,13.83
2023-10-18T13:32:49.811Z,13.35
2023-10-18T13:37:53.275Z,14.15
2023-10-18T13:42:55.955Z,13.65
2023-10-18T13:47:58.547Z,13.46
2023-10-18T13:53:02.352Z,13.71
2023-10-18T13:58:04.644Z,13.80
2023-10-18T14:03:07.115Z,13.59
2023-10-18T14:08:10.818Z,13.96
2023-10-18T14:13:15.488Z,13.67
2023-10-18T14:18:17.986Z,13.60
2023-10-18T14:23:21.578Z,13.94
2023-10-18T14:28:23.823Z,13.64
2023-10-18T14:33:33.770Z,13.68
2023-10-18T14:38:38.772Z,13.07
2023-10-18T14:43:41.364Z,12.91
2023-10-18T14:48:43.559Z,12.82
2023-10-18T14:53:47.601Z,12.69
2023-10-18T14:58:51.100Z,12.65
2023-10-18T15:03:53.448Z,12.59
2023-10-18T15:08:56.782Z,12.41
2023-10-18T15:13:59.215Z,12.24
2023-10-18T15:19:01.783Z,11.91
2023-10-18T15:24:06.242Z,11.78
2023-10-18T15:29:10.187Z,11.24
2023-10-18T15:34:14.945Z,10.95
2023-10-18T15:39:18.781Z,10.46
2023-10-18T15:44:20.857Z,10.21
2023-10-18T15:49:23.668Z,9.96
2023-10-18T15:54:29.716Z,9.91
2023-10-18T15:59:32.599Z,9.63
2023-10-18T16:04:34.942Z,9.29
2023-10-18T16:09:38.747Z,9.12
2023-10-18T16:14:40.523Z,9.31
2023-10-18T16:19:43.724Z,9.06
2023-10-18T16:24:47.212Z,8.88
2023-10-18T16:29:50.241Z,8.83
2023-10-18T16:34:52.586Z,8.80
2023-10-18T16:39:56.313Z,8.63
2023-10-18T16:44:58.308Z,8.45
2023-10-18T16:50:12.456Z,8.31
2023-10-18T16:55:28.920Z,8.05
2023-10-18T17:00:41.243Z,7.96
2023-10-18T17:05:43.064Z,7.76
2023-10-18T17:10:46.821Z,7.71
2023-10-18T17:15:49.314Z,7.85
2023-10-18T17:21:02.358Z,7.60
2023-10-18T17:26:15.563Z,7.68
2023-10-18T17:31:19.457Z,7.58
2023-10-18T17:36:21.594Z,7.69
2023-10-18T17:41:24.850Z,7.57
2023-10-18T17:46:27.267Z,7.56
2023-10-18T17:51:29.580Z,7.70
2023-10-18T17:56:32.831Z,7.93
2023-10-18T18:01:34.715Z,7.98
2023-10-18T18:06:36.950Z,8.08
2023-10-18T18:11:40.548Z,8.07
2023-10-18T18:16:42.728Z,8.22
2023-10-18T18:21:45.072Z,8.04
2023-10-18T18:26:49.316Z,7.97
2023-10-18T18:31:51.806Z,8.27
2023-10-18T18:36:54.084Z,8.20
2023-10-18T18:41:57.680Z,8.23
2023-10-18T18:47:00.047Z,8.15
2023-10-18T18:52:02.291Z,8.20
2023-10-18T18:57:05.922Z,8.20
2023-10-18T19:02:08.100Z,8.22
2023-10-18T19:07:10.243Z,8.12
2023-10-18T19:12:13.383Z,8.02
2023-10-18T19:17:15.926Z,8.02
2023-10-18T19:22:17.877Z,7.76
2023-10-18T19:27:21.616Z,7.92
2023-10-18T19:32:23.809Z,7.78
2023-10-18T19:37:26.087Z,7.73
2023-10-18T19:42:29.639Z,7.81
2023-10-18T19:47:32.682Z,7.76
2023-10-18T19:52:34.839Z,7.72
2023-10-18T19:57:38.509Z,7.74
2023-10-18T20:02:40.932Z,7.46
2023-10-18T20:07:43.241Z,7.42
2023-10-18T20:12:46.748Z,7.29
2023-10-18T20:17:49.282Z,7.21
2023-10-18T20:22:51.430Z,7.27
2023-10-18T20:27:55.639Z,7.18
2023-10-18T20:32:57.517Z,7.15
2023-10-18T20:37:59.771Z,7.12
2023-10-18T20:43:03.563Z,7.13
2023-10-18T20:48:07.251Z,7.01
2023-10-18T20:53:09.457Z,7.15
2023-10-18T20:58:13.438Z,6.93
2023-10-18T21:03:15.775Z,7.17
2023-10-18T21:08:17.864Z,7.03
2023-10-18T21:13:21.425Z,6.98
2023-10-18T21:18:23.644Z,7.10
2023-10-18T21:23:25.908Z,7.14
2023-10-18T21:28:29.577Z,6.95
2023-10-18T21:33:31.761Z,6.89
2023-10-18T21:38:35.391Z,7.09
2023-10-18T21:43:38.610Z,7.11
2023-10-18T21:48:42.024Z,7.07
2023-10-18T21:53:44.761Z,7.08
2023-10-18T21:58:48.437Z,7.19
2023-10-18T22:03:50.789Z,7.10
2023-10-18T22:08:53.057Z,7.07
2023-10-18T22:13:56.534Z,7.03
2023-10-18T22:18:58.718Z,6.95
2023-10-18T22:24:00.869Z,7.01
2023-10-18T22:29:04.460Z,6.93
2023-10-18T22:34:06.995Z,7.06
2023-10-18T22:39:09.467Z,6.99
2023-10-18T22:44:13.003Z,7.02
2023-10-18T22:49:15.384Z,7.01
2023-10-18T22:54:17.593Z,7.02
2023-10-18T22:59:21.501Z,6.99
2023-10-18T23:04:23.713Z,7.00
2023-10-18T23:09:25.796Z,6.91
2023-10-18T23:14:29.551Z,6.86
2023-10-18T23:19:32.242Z,6.76
2023-10-18T23:24:34.408Z,6.88
2023-10-18T23:29:37.752Z,6.73
2023-10-18T23:34:40.091Z,6.79
2023-10-18T23:39:42.189Z,6.72
2023-10-18T23:44:47.397Z,6.60
2023-10-18T23:49:49.798Z,6.59
2023-10-18T23:54:52.594Z,6.57
2023-10-18T23:59:56.191Z,6.54
